sensor_id;sensor_type;location;lat;lon;timestamp;pressure;altitude;pressure_sealevel;temperature;humidity
53262;BME280;39658;51.090;-1.786;2023-03-03T00:01:12;102083.41;;;-2.44;100.00
53262;BME280;39658;51.090;-1.786;2023-03-03T00:03:39;102073.88;;;-2.53;100.00
53262;BME280;39658;51.090;-1.786;2023-03-03T00:06:09;102079.00;;;-2.56;100.00
53262;BME280;39658;51.090;-1.786;2023-03-03T00:08:36;102084.22;;;-2.51;100.00
53262;BME280;39658;51.090;-1.786;2023-03-03T00:11:03;102088.56;;;-2.46;100.00
53262;BME280;39658;51.090;-1.786;2023-03-03T00:13:32;102088.50;;;-2.52;100.00
53262;BME280;39658;51.090;-1.786;2023-03-03T00:16:15;102092.75;;;-2.59;100.00
53262;BME280;39658;51.090;-1.786;2023-03-03T00:18:44;102091.84;;;-2.62;100.00
53262;BME280;39658;51.090;-1.786;2023-03-03T00:21:30;102092.78;;;-2.54;100.00
53262;BME280;39658;51.090;-1.786;2023-03-03T00:24:15;102093.66;;;-2.52;100.00
53262;BME280;39658;51.090;-1.786;2023-03-03T00:26:44;102095.41;;;-2.49;100.00
53262;BME280;39658;51.090;-1.786;2023-03-03T00:29:27;102077.28;;;-2.54;100.00
53262;BME280;39658;51.090;-1.786;2023-03-03T00:32:03;102090.31;;;-2.42;100.00
53262;BME280;39658;51.090;-1.786;2023-03-03T00:34:35;102084.28;;;-2.44;100.00
53262;BME280;39658;51.090;-1.786;2023-03-03T00:37:02;102082.53;;;-2.46;100.00
53262;BME280;39658;51.090;-1.786;2023-03-03T00:39:30;102092.00;;;-2.48;100.00
53262;BME280;39658;51.090;-1.786;2023-03-03T00:41:59;102089.47;;;-2.44;100.00
53262;BME280;39658;51.090;-1.786;2023-03-03T00:44:38;102088.56;;;-2.44;100.00
53262;BME280;39658;51.090;-1.786;2023-03-03T00:47:24;102079.97;;;-2.43;100.00
53262;BME280;39658;51.090;-1.786;2023-03-03T00:49:52;102085.13;;;-2.45;100.00
53262;BME280;39658;51.090;-1.786;2023-03-03T00:52:19;102085.16;;;-2.43;100.00
53262;BME280;39658;51.090;-1.786;2023-03-03T00:54:46;102092.06;;;-2.42;100.00
53262;BME280;39658;51.090;-1.786;2023-03-03T00:57:13;102088.63;;;-2.40;100.00
53262;BME280;39658;51.090;-1.786;2023-03-03T00:59:40;102091.28;;;-2.30;100.00
53262;BME280;39658;51.090;-1.786;2023-03-03T01:02:07;102095.59;;;-2.31;100.00
53262;BME280;39658;51.090;-1.786;2023-03-03T01:04:35;102095.53;;;-2.39;100.00
53262;BME280;39658;51.090;-1.786;2023-03-03T01:07:02;102091.25;;;-2.35;100.00
53262;BME280;39658;51.090;-1.786;2023-03-03T01:09:29;102093.78;;;-2.38;100.00
53262;BME280;39658;51.090;-1.786;2023-03-03T01:11:55;102096.41;;;-2.37;100.00
53262;BME280;39658;51.090;-1.786;2023-03-03T01:14:22;102093.84;;;-2.32;100.00
53262;BME280;39658;51.090;-1.786;2023-03-03T01:16:49;102094.78;;;-2.28;100.00
53262;BME280;39658;51.090;-1.786;2023-03-03T01:19:16;102100.00;;;-2.19;100.00
53262;BME280;39658;51.090;-1.786;2023-03-03T01:21:45;102107.78;;;-2.13;100.00
53262;BME280;39658;51.090;-1.786;2023-03-03T01:24:12;102103.50;;;-2.14;100.00
53262;BME280;39658;51.090;-1.786;2023-03-03T01:26:38;102113.03;;;-2.05;100.00
53262;BME280;39658;51.090;-1.786;2023-03-03T01:29:05;102119.16;;;-1.97;100.00
53262;BME280;39658;51.090;-1.786;2023-03-03T01:31:32;102114.06;;;-1.89;100.00
53262;BME280;39658;51.090;-1.786;2023-03-03T01:33:59;102114.13;;;-1.82;100.00
53262;BME280;39658;51.090;-1.786;2023-03-03T01:36:27;102117.56;;;-1.79;100.00
53262;BME280;39658;51.090;-1.786;2023-03-03T01:38:55;102109.03;;;-1.68;100.00
53262;BME280;39658;51.090;-1.786;2023-03-03T01:41:22;102120.31;;;-1.59;100.00
53262;BME280;39658;51.090;-1.786;2023-03-03T01:43:53;102126.44;;;-1.42;100.00
53262;BME280;39658;51.090;-1.786;2023-03-03T01:46:33;102129.16;;;-1.19;100.00
53262;BME280;39658;51.090;-1.786;2023-03-03T01:49:11;102127.50;;;-1.04;100.00
53262;BME280;39658;51.090;-1.786;2023-03-03T01:51:45;102139.66;;;-0.89;100.00
53262;BME280;39658;51.090;-1.786;2023-03-03T01:54:19;102138.00;;;-0.77;100.00
53262;BME280;39658;51.090;-1.786;2023-03-03T01:56:49;102143.22;;;-0.66;100.00
53262;BME280;39658;51.090;-1.786;2023-03-03T01:59:19;102141.50;;;-0.58;100.00
53262;BME280;39658;51.090;-1.786;2023-03-03T02:01:47;102138.91;;;-0.56;100.00
53262;BME280;39658;51.090;-1.786;2023-03-03T02:04:14;102146.69;;;-0.53;100.00
53262;BME280;39658;51.090;-1.786;2023-03-03T02:06:44;102146.69;;;-0.51;100.00
53262;BME280;39658;51.090;-1.786;2023-03-03T02:09:17;102156.22;;;-0.50;100.00
53262;BME280;39658;51.090;-1.786;2023-03-03T02:11:50;102150.16;;;-0.52;100.00
53262;BME280;39658;51.090;-1.786;2023-03-03T02:14:17;102148.44;;;-0.53;100.00
53262;BME280;39658;51.090;-1.786;2023-03-03T02:16:44;102144.09;;;-0.51;100.00
53262;BME280;39658;51.090;-1.786;2023-03-03T02:19:18;102143.28;;;-0.44;100.00
53262;BME280;39658;51.090;-1.786;2023-03-03T02:21:47;102135.53;;;-0.38;100.00
53262;BME280;39658;51.090;-1.786;2023-03-03T02:24:20;102137.28;;;-0.28;100.00
53262;BME280;39658;51.090;-1.786;2023-03-03T02:26:52;102143.34;;;-0.15;100.00
53262;BME280;39658;51.090;-1.786;2023-03-03T02:29:19;102141.63;;;0.01;100.00
53262;BME280;39658;51.090;-1.786;2023-03-03T02:31:45;102138.19;;;0.14;100.00
53262;BME280;39658;51.090;-1.786;2023-03-03T02:34:12;102142.47;;;0.28;100.00
53262;BME280;39658;51.090;-1.786;2023-03-03T02:36:39;102142.47;;;0.42;100.00
53262;BME280;39658;51.090;-1.786;2023-03-03T02:39:08;102137.25;;;0.56;100.00
53262;BME280;39658;51.090;-1.786;2023-03-03T02:41:39;102127.75;;;0.73;100.00
53262;BME280;39658;51.090;-1.786;2023-03-03T02:44:11;102130.28;;;0.85;100.00
53262;BME280;39658;51.090;-1.786;2023-03-03T02:46:39;102120.72;;;1.01;100.00
53262;BME280;39658;51.090;-1.786;2023-03-03T02:49:08;102126.72;;;1.14;100.00
53262;BME280;39658;51.090;-1.786;2023-03-03T02:51:36;102119.72;;;1.27;100.00
53262;BME280;39658;51.090;-1.786;2023-03-03T02:54:03;102118.81;;;1.39;100.00
53262;BME280;39658;51.090;-1.786;2023-03-03T02:56:30;102117.00;;;1.50;100.00
53262;BME280;39658;51.090;-1.786;2023-03-03T02:58:57;102105.72;;;1.57;100.00
53262;BME280;39658;51.090;-1.786;2023-03-03T03:01:25;102093.59;;;1.55;100.00
53262;BME280;39658;51.090;-1.786;2023-03-03T03:03:53;102109.03;;;1.76;100.00
53262;BME280;39658;51.090;-1.786;2023-03-03T03:06:20;102105.53;;;1.85;100.00
53262;BME280;39658;51.090;-1.786;2023-03-03T03:08:47;102101.16;;;1.87;100.00
53262;BME280;39658;51.090;-1.786;2023-03-03T03:11:14;102105.50;;;1.87;100.00
53262;BME280;39658;51.090;-1.786;2023-03-03T03:13:41;102096.81;;;1.89;100.00
53262;BME280;39658;51.090;-1.786;2023-03-03T03:16:07;102100.22;;;1.97;100.00
53262;BME280;39658;51.090;-1.786;2023-03-03T03:18:36;102095.00;;;2.02;100.00
53262;BME280;39658;51.090;-1.786;2023-03-03T03:21:07;102095.00;;;2.01;100.00
53262;BME280;39658;51.090;-1.786;2023-03-03T03:23:34;102094.97;;;2.05;100.00
53262;BME280;39658;51.090;-1.786;2023-03-03T03:26:01;102086.31;;;2.02;100.00
53262;BME280;39658;51.090;-1.786;2023-03-03T03:28:28;102081.06;;;2.05;100.00
53262;BME280;39658;51.090;-1.786;2023-03-03T03:30:55;102082.81;;;2.06;100.00
53262;BME280;39658;51.090;-1.786;2023-03-03T03:33:22;102074.16;;;2.05;100.00
53262;BME280;39658;51.090;-1.786;2023-03-03T03:35:50;102077.66;;;2.01;100.00
53262;BME280;39658;51.090;-1.786;2023-03-03T03:38:17;102072.47;;;1.98;100.00
53262;BME280;39658;51.090;-1.786;2023-03-03T03:40:44;102073.38;;;1.92;100.00
53262;BME280;39658;51.090;-1.786;2023-03-03T03:43:11;102082.06;;;1.93;100.00
53262;BME280;39658;51.090;-1.786;2023-03-03T03:45:37;102085.50;;;1.95;100.00
53262;BME280;39658;51.090;-1.786;2023-03-03T03:48:04;102083.72;;;2.00;100.00
53262;BME280;39658;51.090;-1.786;2023-03-03T03:50:31;102077.63;;;2.03;100.00
53262;BME280;39658;51.090;-1.786;2023-03-03T03:53:00;102085.50;;;1.96;100.00
53262;BME280;39658;51.090;-1.786;2023-03-03T03:55:26;102075.88;;;2.05;100.00
53262;BME280;39658;51.090;-1.786;2023-03-03T03:57:54;102081.09;;;2.02;100.00
53262;BME280;39658;51.090;-1.786;2023-03-03T04:00:22;102079.41;;;2.01;100.00
53262;BME280;39658;51.090;-1.786;2023-03-03T04:02:49;102077.63;;;2.03;100.00
53262;BME280;39658;51.090;-1.786;2023-03-03T04:05:16;102068.03;;;2.08;100.00
53262;BME280;39658;51.090;-1.786;2023-03-03T04:07:43;102067.16;;;2.09;100.00
53262;BME280;39658;51.090;-1.786;2023-03-03T04:10:11;102076.72;;;2.10;100.00
53262;BME280;39658;51.090;-1.786;2023-03-03T04:12:39;102067.13;;;2.15;100.00
53262;BME280;39658;51.090;-1.786;2023-03-03T04:15:07;102063.59;;;2.21;100.00
53262;BME280;39658;51.090;-1.786;2023-03-03T04:17:35;102056.66;;;2.20;100.00
53262;BME280;39658;51.090;-1.786;2023-03-03T04:20:02;102060.13;;;2.19;100.00
53262;BME280;39658;51.090;-1.786;2023-03-03T04:22:30;102058.44;;;2.16;100.00
53262;BME280;39658;51.090;-1.786;2023-03-03T04:24:58;102063.63;;;2.18;100.00
53262;BME280;39658;51.090;-1.786;2023-03-03T04:27:26;102060.22;;;2.11;100.00
53262;BME280;39658;51.090;-1.786;2023-03-03T04:29:53;102058.44;;;2.18;100.00
53262;BME280;39658;51.090;-1.786;2023-03-03T04:32:20;102056.72;;;2.15;100.00
53262;BME280;39658;51.090;-1.786;2023-03-03T04:34:46;102056.69;;;2.17;100.00
53262;BME280;39658;51.090;-1.786;2023-03-03T04:37:13;102061.06;;;2.16;100.00
53262;BME280;39658;51.090;-1.786;2023-03-03T04:39:40;102055.81;;;2.18;100.00
53262;BME280;39658;51.090;-1.786;2023-03-03T04:42:07;102066.16;;;2.25;100.00
53262;BME280;39658;51.090;-1.786;2023-03-03T04:44:35;102057.44;;;2.28;100.00
53262;BME280;39658;51.090;-1.786;2023-03-03T04:47:02;102066.13;;;2.27;100.00
53262;BME280;39658;51.090;-1.786;2023-03-03T04:49:28;102062.69;;;2.25;100.00
53262;BME280;39658;51.090;-1.786;2023-03-03T04:51:55;102064.44;;;2.23;100.00
53262;BME280;39658;51.090;-1.786;2023-03-03T04:54:22;102060.09;;;2.23;100.00
53262;BME280;39658;51.090;-1.786;2023-03-03T04:56:49;102057.53;;;2.19;100.00
53262;BME280;39658;51.090;-1.786;2023-03-03T04:59:16;102070.50;;;2.22;100.00
53262;BME280;39658;51.090;-1.786;2023-03-03T05:01:44;102072.28;;;2.20;100.00
53262;BME280;39658;51.090;-1.786;2023-03-03T05:04:11;102074.75;;;2.32;100.00
53262;BME280;39658;51.090;-1.786;2023-03-03T05:06:38;102074.00;;;2.22;100.00
53262;BME280;39658;51.090;-1.786;2023-03-03T05:09:05;102070.47;;;2.28;100.00
53262;BME280;39658;51.090;-1.786;2023-03-03T05:11:32;102074.84;;;2.23;100.00
53262;BME280;39658;51.090;-1.786;2023-03-03T05:13:58;102061.84;;;2.21;100.00
53262;BME280;39658;51.090;-1.786;2023-03-03T05:16:26;102067.81;;;2.32;100.00
53262;BME280;39658;51.090;-1.786;2023-03-03T05:18:54;102066.19;;;2.24;100.00
53262;BME280;39658;51.090;-1.786;2023-03-03T05:21:21;102064.50;;;2.17;100.00
53262;BME280;39658;51.090;-1.786;2023-03-03T05:23:47;102067.97;;;2.14;100.00
53262;BME280;39658;51.090;-1.786;2023-03-03T05:26:14;102072.31;;;2.17;100.00
53262;BME280;39658;51.090;-1.786;2023-03-03T05:28:41;102070.53;;;2.20;100.00
53262;BME280;39658;51.090;-1.786;2023-03-03T05:31:08;102073.16;;;2.17;100.00
53262;BME280;39658;51.090;-1.786;2023-03-03T05:33:34;102072.28;;;2.20;100.00
53262;BME280;39658;51.090;-1.786;2023-03-03T05:36:03;102068.84;;;2.16;100.00
53262;BME280;39658;51.090;-1.786;2023-03-03T05:38:30;102062.75;;;2.15;100.00
53262;BME280;39658;51.090;-1.786;2023-03-03T05:40:56;102058.47;;;2.13;100.00
53262;BME280;39658;51.090;-1.786;2023-03-03T05:43:23;102063.63;;;2.18;100.00
53262;BME280;39658;51.090;-1.786;2023-03-03T05:45:54;102058.41;;;2.19;100.00
53262;BME280;39658;51.090;-1.786;2023-03-03T05:48:21;102068.78;;;2.24;100.00
53262;BME280;39658;51.090;-1.786;2023-03-03T05:50:47;102065.31;;;2.22;100.00
53262;BME280;39658;51.090;-1.786;2023-03-03T05:53:16;102060.00;;;2.32;100.00
53262;BME280;39658;51.090;-1.786;2023-03-03T05:55:42;102058.25;;;2.31;100.00
53262;BME280;39658;51.090;-1.786;2023-03-03T05:58:09;102056.66;;;2.21;100.00
53262;BME280;39658;51.090;-1.786;2023-03-03T06:00:36;102066.19;;;2.22;100.00
53262;BME280;39658;51.090;-1.786;2023-03-03T06:03:03;102067.94;;;2.19;100.00
53262;BME280;39658;51.090;-1.786;2023-03-03T06:05:30;102064.47;;;2.21;100.00
53262;BME280;39658;51.090;-1.786;2023-03-03T06:07:56;102073.06;;;2.26;100.00
53262;BME280;39658;51.090;-1.786;2023-03-03T06:10:25;102074.00;;;2.24;100.00
53262;BME280;39658;51.090;-1.786;2023-03-03T06:12:52;102079.13;;;2.28;100.00
53262;BME280;39658;51.090;-1.786;2023-03-03T06:15:19;102066.09;;;2.30;100.00
53262;BME280;39658;51.090;-1.786;2023-03-03T06:17:46;102077.44;;;2.24;100.00
53262;BME280;39658;51.090;-1.786;2023-03-03T06:20:13;102076.59;;;2.22;100.00
53262;BME280;39658;51.090;-1.786;2023-03-03T06:22:40;102087.03;;;2.21;100.00
53262;BME280;39658;51.090;-1.786;2023-03-03T06:25:07;102085.31;;;2.17;100.00
53262;BME280;39658;51.090;-1.786;2023-03-03T06:27:36;102082.75;;;2.13;100.00
53262;BME280;39658;51.090;-1.786;2023-03-03T06:30:03;102080.94;;;2.22;100.00
53262;BME280;39658;51.090;-1.786;2023-03-03T06:32:30;102077.50;;;2.17;100.00
53262;BME280;39658;51.090;-1.786;2023-03-03T06:34:57;102074.00;;;2.21;100.00
53262;BME280;39658;51.090;-1.786;2023-03-03T06:37:24;102071.41;;;2.22;100.00
53262;BME280;39658;51.090;-1.786;2023-03-03T06:39:51;102081.72;;;2.27;100.00
53262;BME280;39658;51.090;-1.786;2023-03-03T06:42:18;102080.03;;;2.26;100.00
53262;BME280;39658;51.090;-1.786;2023-03-03T06:44:46;102075.69;;;2.23;100.00
53262;BME280;39658;51.090;-1.786;2023-03-03T06:47:13;102080.88;;;2.26;100.00
53262;BME280;39658;51.090;-1.786;2023-03-03T06:49:40;102083.53;;;2.20;100.00
53262;BME280;39658;51.090;-1.786;2023-03-03T06:52:11;102080.06;;;2.21;100.00
53262;BME280;39658;51.090;-1.786;2023-03-03T06:54:38;102083.56;;;2.19;100.00
53262;BME280;39658;51.090;-1.786;2023-03-03T06:57:14;102093.03;;;2.26;100.00
53262;BME280;39658;51.090;-1.786;2023-03-03T06:59:41;102093.91;;;2.26;100.00
53262;BME280;39658;51.090;-1.786;2023-03-03T07:02:15;102095.66;;;2.26;100.00
53262;BME280;39658;51.090;-1.786;2023-03-03T07:04:43;102093.00;;;2.30;100.00
53262;BME280;39658;51.090;-1.786;2023-03-03T07:07:16;102092.00;;;2.42;100.00
53262;BME280;39658;51.090;-1.786;2023-03-03T07:09:44;102096.31;;;2.45;100.00
53262;BME280;39658;51.090;-1.786;2023-03-03T07:12:14;102088.50;;;2.45;100.00
53262;BME280;39658;51.090;-1.786;2023-03-03T07:14:43;102096.34;;;2.42;100.00
53262;BME280;39658;51.090;-1.786;2023-03-03T07:17:16;102094.56;;;2.45;100.00
53262;BME280;39658;51.090;-1.786;2023-03-03T07:19:43;102101.44;;;2.53;100.00
53262;BME280;39658;51.090;-1.786;2023-03-03T07:22:15;102103.25;;;2.47;100.00
53262;BME280;39658;51.090;-1.786;2023-03-03T07:24:44;102100.63;;;2.50;100.00
53262;BME280;39658;51.090;-1.786;2023-03-03T07:27:16;102106.59;;;2.57;100.00
53262;BME280;39658;51.090;-1.786;2023-03-03T07:29:46;102111.78;;;2.60;100.00
53262;BME280;39658;51.090;-1.786;2023-03-03T07:32:24;102115.22;;;2.62;100.00
53262;BME280;39658;51.090;-1.786;2023-03-03T07:34:53;102111.78;;;2.60;100.00
53262;BME280;39658;51.090;-1.786;2023-03-03T07:37:29;102119.50;;;2.69;100.00
53262;BME280;39658;51.090;-1.786;2023-03-03T07:39:58;102122.06;;;2.73;100.00
53262;BME280;39658;51.090;-1.786;2023-03-03T07:42:27;102128.13;;;2.73;100.00
53262;BME280;39658;51.090;-1.786;2023-03-03T07:44:58;102135.94;;;2.75;100.00
53262;BME280;39658;51.090;-1.786;2023-03-03T07:47:29;102132.38;;;2.85;100.00
53262;BME280;39658;51.090;-1.786;2023-03-03T07:49:58;102139.34;;;2.81;100.00
53262;BME280;39658;51.090;-1.786;2023-03-03T07:52:28;102134.03;;;2.92;100.00
53262;BME280;39658;51.090;-1.786;2023-03-03T07:54:59;102132.28;;;2.91;100.00
53262;BME280;39658;51.090;-1.786;2023-03-03T07:57:28;102144.44;;;2.92;100.00
53262;BME280;39658;51.090;-1.786;2023-03-03T08:02:54;102146.19;;;2.90;100.00
53262;BME280;39658;51.090;-1.786;2023-03-03T08:05:29;102144.38;;;2.98;100.00
53262;BME280;39658;51.090;-1.786;2023-03-03T08:08:27;102138.22;;;3.02;100.00
53262;BME280;39658;51.090;-1.786;2023-03-03T08:10:56;102146.78;;;3.14;100.00
53262;BME280;39658;51.090;-1.786;2023-03-03T08:13:26;102146.72;;;3.18;100.00
53262;BME280;39658;51.090;-1.786;2023-03-03T08:15:58;102140.63;;;3.21;100.00
53262;BME280;39658;51.090;-1.786;2023-03-03T08:18:30;102150.91;;;3.32;100.00
53262;BME280;39658;51.090;-1.786;2023-03-03T08:21:00;102152.50;;;3.44;100.00
53262;BME280;39658;51.090;-1.786;2023-03-03T08:23:28;102153.31;;;3.47;100.00
53262;BME280;39658;51.090;-1.786;2023-03-03T08:25:55;102147.16;;;3.53;100.00
53262;BME280;39658;51.090;-1.786;2023-03-03T08:28:21;102148.78;;;3.60;100.00
53262;BME280;39658;51.090;-1.786;2023-03-03T08:30:49;102151.38;;;3.62;100.00
53262;BME280;39658;51.090;-1.786;2023-03-03T08:33:17;102154.72;;;3.73;100.00
53262;BME280;39658;51.090;-1.786;2023-03-03T08:35:46;102152.81;;;3.83;100.00
53262;BME280;39658;51.090;-1.786;2023-03-03T08:38:15;102163.25;;;3.83;100.00
53262;BME280;39658;51.090;-1.786;2023-03-03T08:40:43;102169.22;;;3.91;100.00
53262;BME280;39658;51.090;-1.786;2023-03-03T08:43:10;102166.53;;;3.95;100.00
53262;BME280;39658;51.090;-1.786;2023-03-03T08:45:41;102172.59;;;3.98;100.00
53262;BME280;39658;51.090;-1.786;2023-03-03T08:48:08;102163.00;;;4.01;100.00
53262;BME280;39658;51.090;-1.786;2023-03-03T08:50:35;102172.38;;;4.11;100.00
53262;BME280;39658;51.090;-1.786;2023-03-03T08:53:04;102166.09;;;4.25;100.00
53262;BME280;39658;51.090;-1.786;2023-03-03T08:55:31;102166.81;;;4.33;100.00
53262;BME280;39658;51.090;-1.786;2023-03-03T08:57:58;102168.47;;;4.39;100.00
53262;BME280;39658;51.090;-1.786;2023-03-03T09:00:25;102174.53;;;4.41;100.00
53262;BME280;39658;51.090;-1.786;2023-03-03T09:02:52;102170.06;;;4.47;100.00
53262;BME280;39658;51.090;-1.786;2023-03-03T09:05:20;102175.19;;;4.52;100.00
53262;BME280;39658;51.090;-1.786;2023-03-03T09:07:48;102182.97;;;4.55;100.00
53262;BME280;39658;51.090;-1.786;2023-03-03T09:10:19;102171.59;;;4.59;100.00
53262;BME280;39658;51.090;-1.786;2023-03-03T09:12:47;102176.00;;;4.57;100.00
53262;BME280;39658;51.090;-1.786;2023-03-03T09:15:19;102169.72;;;4.66;100.00
53262;BME280;39658;51.090;-1.786;2023-03-03T09:17:46;102179.97;;;4.77;100.00
53262;BME280;39658;51.090;-1.786;2023-03-03T09:20:23;102175.81;;;4.68;100.00
53262;BME280;39658;51.090;-1.786;2023-03-03T09:22:50;102176.72;;;4.65;100.00
53262;BME280;39658;51.090;-1.786;2023-03-03T09:25:26;102178.38;;;4.71;100.00
53262;BME280;39658;51.090;-1.786;2023-03-03T09:27:56;102186.91;;;4.79;100.00
53262;BME280;39658;51.090;-1.786;2023-03-03T09:30:33;102183.28;;;4.88;100.00
53262;BME280;39658;51.090;-1.786;2023-03-03T09:33:04;102184.16;;;4.87;100.00
53262;BME280;39658;51.090;-1.786;2023-03-03T09:35:42;102184.94;;;4.91;100.00
53262;BME280;39658;51.090;-1.786;2023-03-03T09:38:24;102185.69;;;4.99;100.00
53262;BME280;39658;51.090;-1.786;2023-03-03T09:43:55;102182.91;;;5.08;100.00
53262;BME280;39658;51.090;-1.786;2023-03-03T09:46:29;102179.31;;;5.12;100.00
53262;BME280;39658;51.090;-1.786;2023-03-03T09:49:01;102180.94;;;5.19;100.00
53262;BME280;39658;51.090;-1.786;2023-03-03T09:51:53;102178.25;;;5.22;100.00
53262;BME280;39658;51.090;-1.786;2023-03-03T09:54:38;102180.03;;;5.20;100.00
53262;BME280;39658;51.090;-1.786;2023-03-03T09:57:13;102175.41;;;5.33;100.00
53262;BME280;39658;51.090;-1.786;2023-03-03T09:59:54;102176.00;;;5.46;100.00
53262;BME280;39658;51.090;-1.786;2023-03-03T10:02:41;102168.75;;;5.59;100.00
53262;BME280;39658;51.090;-1.786;2023-03-03T10:05:16;102176.47;;;5.65;100.00
53262;BME280;39658;51.090;-1.786;2023-03-03T10:08:02;102185.53;;;5.50;100.00
53262;BME280;39658;51.090;-1.786;2023-03-03T10:10:55;102180.94;;;5.60;100.00
53262;BME280;39658;51.090;-1.786;2023-03-03T10:13:42;102171.16;;;5.68;100.00
53262;BME280;39658;51.090;-1.786;2023-03-03T10:16:21;102190.63;;;5.97;100.00
53262;BME280;39658;51.090;-1.786;2023-03-03T10:19:00;102184.56;;;5.93;100.00
53262;BME280;39658;51.090;-1.786;2023-03-03T10:21:30;102185.75;;;5.80;100.00
53262;BME280;39658;51.090;-1.786;2023-03-03T10:24:08;102185.56;;;5.88;100.00
53262;BME280;39658;51.090;-1.786;2023-03-03T10:26:50;102177.00;;;6.20;100.00
53262;BME280;39658;51.090;-1.786;2023-03-03T10:29:32;102188.38;;;6.18;100.00
53262;BME280;39658;51.090;-1.786;2023-03-03T10:32:39;102186.69;;;6.15;100.00
53262;BME280;39658;51.090;-1.786;2023-03-03T10:35:23;102194.00;;;6.02;100.00
53262;BME280;39658;51.090;-1.786;2023-03-03T10:38:05;102194.38;;;5.84;100.00
53262;BME280;39658;51.090;-1.786;2023-03-03T10:40:42;102197.44;;;5.64;100.00
53262;BME280;39658;51.090;-1.786;2023-03-03T10:46:18;102190.38;;;5.69;100.00
53262;BME280;39658;51.090;-1.786;2023-03-03T10:49:00;102197.03;;;5.82;100.00
53262;BME280;39658;51.090;-1.786;2023-03-03T10:51:35;102205.88;;;5.78;100.00
53262;BME280;39658;51.090;-1.786;2023-03-03T10:54:16;102198.97;;;5.74;100.00
53262;BME280;39658;51.090;-1.786;2023-03-03T10:56:49;102198.00;;;5.78;100.00
53262;BME280;39658;51.090;-1.786;2023-03-03T10:59:35;102210.31;;;5.73;100.00
53262;BME280;39658;51.090;-1.786;2023-03-03T11:02:11;102202.59;;;5.67;100.00
53262;BME280;39658;51.090;-1.786;2023-03-03T11:04:58;102210.75;;;5.53;100.00
53262;BME280;39658;51.090;-1.786;2023-03-03T11:07:34;102207.31;;;5.51;100.00
53262;BME280;39658;51.090;-1.786;2023-03-03T11:10:17;102204.38;;;5.66;100.00
53262;BME280;39658;51.090;-1.786;2023-03-03T11:12:53;102205.09;;;5.73;100.00
53262;BME280;39658;51.090;-1.786;2023-03-03T11:15:40;102207.19;;;5.98;100.00
53262;BME280;39658;51.090;-1.786;2023-03-03T11:18:23;102205.97;;;6.13;100.00
53262;BME280;39658;51.090;-1.786;2023-03-03T11:20:55;102205.09;;;6.12;100.00
53262;BME280;39658;51.090;-1.786;2023-03-03T11:26:27;102203.50;;;6.42;100.00
53262;BME280;39658;51.090;-1.786;2023-03-03T11:29:10;102211.25;;;6.47;100.00
53262;BME280;39658;51.090;-1.786;2023-03-03T11:31:44;102213.84;;;6.49;100.00
53262;BME280;39658;51.090;-1.786;2023-03-03T11:34:33;102209.94;;;6.65;100.00
53262;BME280;39658;51.090;-1.786;2023-03-03T11:37:06;102211.00;;;6.58;100.00
53262;BME280;39658;51.090;-1.786;2023-03-03T11:39:34;102226.91;;;6.50;100.00
53262;BME280;39658;51.090;-1.786;2023-03-03T11:42:08;102216.72;;;6.38;100.00
53262;BME280;39658;51.090;-1.786;2023-03-03T11:44:42;102223.06;;;6.27;100.00
53262;BME280;39658;51.090;-1.786;2023-03-03T11:47:16;102221.38;;;6.26;100.00
53262;BME280;39658;51.090;-1.786;2023-03-03T11:49:49;102217.56;;;6.38;100.00
53262;BME280;39658;51.090;-1.786;2023-03-03T11:52:24;102215.22;;;6.63;100.00
53262;BME280;39658;51.090;-1.786;2023-03-03T11:55:00;102218.38;;;6.76;100.00
53262;BME280;39658;51.090;-1.786;2023-03-03T11:57:33;102212.44;;;6.70;100.00
53262;BME280;39658;51.090;-1.786;2023-03-03T12:00:11;102211.38;;;6.77;100.00
53262;BME280;39658;51.090;-1.786;2023-03-03T12:02:57;102215.19;;;6.65;100.00
53262;BME280;39658;51.090;-1.786;2023-03-03T12:05:38;102212.53;;;6.67;100.00
53262;BME280;39658;51.090;-1.786;2023-03-03T12:08:17;102219.50;;;6.66;100.00
53262;BME280;39658;51.090;-1.786;2023-03-03T12:10:50;102221.63;;;6.52;100.00
53262;BME280;39658;51.090;-1.786;2023-03-03T12:13:25;102214.94;;;6.38;100.00
53262;BME280;39658;51.090;-1.786;2023-03-03T12:16:00;102220.31;;;6.34;100.00
53262;BME280;39658;51.090;-1.786;2023-03-03T12:21:45;102208.97;;;6.33;100.00
53262;BME280;39658;51.090;-1.786;2023-03-03T12:24:26;102209.00;;;6.32;100.00
53262;BME280;39658;51.090;-1.786;2023-03-03T12:27:05;102210.56;;;6.40;100.00
53262;BME280;39658;51.090;-1.786;2023-03-03T12:29:40;102201.97;;;6.34;100.00
53262;BME280;39658;51.090;-1.786;2023-03-03T12:32:21;102201.25;;;6.27;100.00
53262;BME280;39658;51.090;-1.786;2023-03-03T12:34:53;102199.38;;;6.32;100.00
53262;BME280;39658;51.090;-1.786;2023-03-03T12:37:45;102203.22;;;6.19;100.00
53262;BME280;39658;51.090;-1.786;2023-03-03T12:40:16;102201.38;;;6.22;100.00
53262;BME280;39658;51.090;-1.786;2023-03-03T12:43:06;102194.25;;;6.27;100.00
53262;BME280;39658;51.090;-1.786;2023-03-03T12:45:45;102201.41;;;6.21;100.00
53262;BME280;39658;51.090;-1.786;2023-03-03T12:48:16;102197.72;;;6.29;100.00
53262;BME280;39658;51.090;-1.786;2023-03-03T12:50:52;102192.44;;;6.31;100.00
53262;BME280;39658;51.090;-1.786;2023-03-03T12:53:42;102193.78;;;6.11;100.00
53262;BME280;39658;51.090;-1.786;2023-03-03T12:56:16;102197.25;;;6.12;100.00
53262;BME280;39658;51.090;-1.786;2023-03-03T12:58:51;102190.31;;;6.11;100.00
53262;BME280;39658;51.090;-1.786;2023-03-03T13:01:34;102185.00;;;6.14;100.00
53262;BME280;39658;51.090;-1.786;2023-03-03T13:04:08;102187.78;;;6.06;100.00
53262;BME280;39658;51.090;-1.786;2023-03-03T13:06:42;102190.47;;;6.03;100.00
53262;BME280;39658;51.090;-1.786;2023-03-03T13:09:27;102191.22;;;6.08;100.00
53262;BME280;39658;51.090;-1.786;2023-03-03T13:12:15;102187.91;;;6.02;100.00
53262;BME280;39658;51.090;-1.786;2023-03-03T13:14:50;102182.22;;;6.20;100.00